createdAt,value
2022-08-26T00:00:27.681Z,3.27
2022-08-26T00:01:41.687Z,3.03
2022-08-26T00:02:56.070Z,3.27
2022-08-26T00:04:08.173Z,4.00
2022-08-26T00:05:20.290Z,3.77
2022-08-26T00:06:32.096Z,4.07
2022-08-26T00:07:45.979Z,3.20
2022-08-26T00:08:57.497Z,3.87
2022-08-26T00:10:09.292Z,3.70
2022-08-26T00:11:26.750Z,3.80
2022-08-26T00:12:39.021Z,3.03
2022-08-26T00:13:50.986Z,3.20
2022-08-26T00:15:02.640Z,2.80
2022-08-26T00:16:14.193Z,2.97
2022-08-26T00:17:26.312Z,3.13
2022-08-26T00:18:40.838Z,3.27
2022-08-26T00:19:53.369Z,3.80
2022-08-26T00:21:06.139Z,3.20
2022-08-26T00:22:20.271Z,3.20
2022-08-26T00:23:33.636Z,3.20
2022-08-26T00:24:47.818Z,3.23
2022-08-26T00:26:00.115Z,2.97
2022-08-26T00:27:13.074Z,3.63
2022-08-26T00:28:24.996Z,2.73
2022-08-26T00:29:37.573Z,3.97
2022-08-26T00:30:51.590Z,3.97
2022-08-26T00:32:04.053Z,4.03
2022-08-26T00:33:16.426Z,2.70
2022-08-26T00:34:29.983Z,3.30
2022-08-26T00:35:45.223Z,4.00
2022-08-26T00:36:57.178Z,3.90
2022-08-26T00:38:08.890Z,3.90
2022-08-26T00:39:21.161Z,4.00
2022-08-26T00:40:35.142Z,3.07
2022-08-26T00:41:46.690Z,2.40
2022-08-26T00:42:58.461Z,3.40
2022-08-26T00:44:11.245Z,3.53
2022-08-26T00:45:23.092Z,3.60
2022-08-26T00:46:37.274Z,3.50
2022-08-26T00:47:51.322Z,3.10
2022-08-26T00:49:12.544Z,4.53
2022-08-26T00:50:26.782Z,3.67
2022-08-26T00:51:42.520Z,3.23
2022-08-26T00:52:55.677Z,2.50
2022-08-26T00:54:10.687Z,3.90
2022-08-26T00:55:41.158Z,3.03
2022-08-26T00:56:57.807Z,4.10
2022-08-26T00:58:11.620Z,3.57
2022-08-26T00:59:23.966Z,3.73
2022-08-26T01:00:35.690Z,3.33
2022-08-26T01:01:47.555Z,3.10
2022-08-26T01:03:00.126Z,3.47
2022-08-26T01:04:13.660Z,3.10
2022-08-26T01:05:25.548Z,3.67
2022-08-26T01:06:39.376Z,3.27
2022-08-26T01:07:50.992Z,3.57
2022-08-26T01:09:02.513Z,3.33
2022-08-26T01:10:16.409Z,3.60
2022-08-26T01:11:28.140Z,3.60
2022-08-26T01:12:43.015Z,4.10
2022-08-26T01:13:56.215Z,2.83
2022-08-26T01:15:10.027Z,3.50
2022-08-26T01:16:25.759Z,3.40
2022-08-26T01:17:37.707Z,3.33
2022-08-26T01:18:49.249Z,3.77
2022-08-26T01:20:06.609Z,3.97
2022-08-26T01:21:23.011Z,2.80
2022-08-26T01:22:53.324Z,2.83
2022-08-26T01:24:05.454Z,2.93
2022-08-26T01:25:17.139Z,3.33
2022-08-26T01:26:37.489Z,3.57
2022-08-26T01:27:49.280Z,3.50
2022-08-26T01:29:03.353Z,2.90
2022-08-26T01:30:16.607Z,3.23
2022-08-26T01:31:30.813Z,3.57
2022-08-26T01:32:43.005Z,2.93
2022-08-26T01:34:02.097Z,3.17
2022-08-26T01:35:13.683Z,2.83
2022-08-26T01:36:25.328Z,3.10
2022-08-26T01:37:39.005Z,3.33
2022-08-26T01:38:52.948Z,4.07
2022-08-26T01:40:06.186Z,2.73
2022-08-26T01:41:19.955Z,3.67
2022-08-26T01:42:40.829Z,4.63
2022-08-26T01:43:54.330Z,3.53
2022-08-26T01:45:09.809Z,3.40
2022-08-26T01:46:22.726Z,4.00
2022-08-26T01:47:35.575Z,3.33
2022-08-26T01:48:47.979Z,2.90
2022-08-26T01:50:07.586Z,2.63
2022-08-26T01:51:20.258Z,3.07
2022-08-26T01:52:33.348Z,3.67
2022-08-26T01:53:46.222Z,2.20
2022-08-26T01:54:59.024Z,2.50
2022-08-26T01:56:12.273Z,3.40
2022-08-26T01:57:25.305Z,2.70
2022-08-26T01:58:39.614Z,2.47
2022-08-26T01:59:53.196Z,3.80
2022-08-26T02:01:06.149Z,3.67
2022-08-26T02:02:17.890Z,3.33
2022-08-26T02:03:29.979Z,3.47
2022-08-26T02:04:59.616Z,3.07
2022-08-26T02:06:11.349Z,3.10
2022-08-26T02:07:26.575Z,3.27
2022-08-26T02:08:41.070Z,3.27
2022-08-26T02:09:52.565Z,2.63
2022-08-26T02:11:04.283Z,2.87
2022-08-26T02:12:17.225Z,4.07
2022-08-26T02:13:30.108Z,3.13
2022-08-26T02:14:43.776Z,3.77
2022-08-26T02:15:56.459Z,3.20
2022-08-26T02:17:08.896Z,3.60
2022-08-26T02:18:20.428Z,3.63
2022-08-26T02:19:33.146Z,2.93
2022-08-26T02:20:47.311Z,3.67
2022-08-26T02:22:05.329Z,3.30
2022-08-26T02:23:18.138Z,3.37
2022-08-26T02:24:30.800Z,3.40
2022-08-26T02:25:57.982Z,3.50
2022-08-26T02:27:09.445Z,4.77
2022-08-26T02:28:20.915Z,3.17
2022-08-26T02:29:41.401Z,3.10
2022-08-26T02:30:55.376Z,3.43
2022-08-26T02:32:07.894Z,3.63
2022-08-26T02:33:19.364Z,3.83
2022-08-26T02:34:32.330Z,4.87
2022-08-26T02:35:43.894Z,3.20
2022-08-26T02:37:02.552Z,3.60
2022-08-26T02:38:15.053Z,4.07
2022-08-26T02:39:26.940Z,3.03
2022-08-26T02:40:41.048Z,3.60
2022-08-26T02:41:52.606Z,3.50
2022-08-26T02:43:04.749Z,3.03
2022-08-26T02:44:20.202Z,3.67
2022-08-26T02:45:31.778Z,3.57
2022-08-26T02:46:47.013Z,3.37
2022-08-26T02:47:59.693Z,4.00
2022-08-26T02:49:11.403Z,3.30
2022-08-26T02:50:22.936Z,3.00
2022-08-26T02:51:37.014Z,3.67
2022-08-26T02:52:48.870Z,2.53
2022-08-26T02:54:00.400Z,3.33
2022-08-26T02:55:12.992Z,3.97
2022-08-26T02:56:24.471Z,3.30
2022-08-26T02:57:35.998Z,3.37
2022-08-26T02:58:47.653Z,4.23
2022-08-26T03:00:00.779Z,3.83
2022-08-26T03:01:32.833Z,3.97
2022-08-26T03:02:44.457Z,3.03
2022-08-26T03:03:56.549Z,3.60
2022-08-26T03:05:08.341Z,3.93
2022-08-26T03:06:19.930Z,4.00
2022-08-26T03:07:31.432Z,3.47
2022-08-26T03:08:42.939Z,3.47
2022-08-26T03:09:54.795Z,3.73
2022-08-26T03:11:06.322Z,4.43
2022-08-26T03:12:17.952Z,4.20
2022-08-26T03:13:30.394Z,4.10
2022-08-26T03:14:42.395Z,4.90
2022-08-26T03:15:55.208Z,3.20
2022-08-26T03:17:07.731Z,3.77
2022-08-26T03:18:21.635Z,3.77
2022-08-26T03:19:33.111Z,4.10
2022-08-26T03:20:46.534Z,4.40
2022-08-26T03:21:58.684Z,4.20
2022-08-26T03:23:10.410Z,3.80
2022-08-26T03:24:22.039Z,4.03
2022-08-26T03:25:34.000Z,4.10
2022-08-26T03:26:52.334Z,3.70
2022-08-26T03:28:04.524Z,4.10
2022-08-26T03:29:34.603Z,3.30
2022-08-26T03:30:48.181Z,4.00
2022-08-26T03:32:01.643Z,4.63
2022-08-26T03:33:14.383Z,3.03
2022-08-26T03:34:25.977Z,3.53
2022-08-26T03:35:38.433Z,3.60
2022-08-26T03:36:51.191Z,3.20
2022-08-26T03:38:03.537Z,4.23
2022-08-26T03:39:15.017Z,4.37
2022-08-26T03:40:29.006Z,5.27
2022-08-26T03:41:41.303Z,3.27
2022-08-26T03:42:53.281Z,4.33
2022-08-26T03:44:06.038Z,3.93
2022-08-26T03:45:18.235Z,4.57
2022-08-26T03:46:31.149Z,3.83
2022-08-26T03:47:43.430Z,3.87
2022-08-26T03:48:55.211Z,3.33
2022-08-26T03:50:07.972Z,4.33
2022-08-26T03:51:19.701Z,3.67
2022-08-26T03:52:31.443Z,3.23
2022-08-26T03:53:43.064Z,4.93
2022-08-26T03:54:54.543Z,4.70
2022-08-26T03:56:08.044Z,3.60
2022-08-26T03:57:19.784Z,4.10
2022-08-26T03:58:32.144Z,4.00
2022-08-26T03:59:43.704Z,3.33
2022-08-26T04:00:55.416Z,4.37
2022-08-26T04:02:11.314Z,4.57
2022-08-26T04:03:42.317Z,3.80
2022-08-26T04:04:53.821Z,3.43
2022-08-26T04:06:05.447Z,4.10
2022-08-26T04:07:16.934Z,3.43
2022-08-26T04:08:28.846Z,3.97
2022-08-26T04:09:40.342Z,4.57
2022-08-26T04:10:51.815Z,4.23
2022-08-26T04:12:04.377Z,4.03
2022-08-26T04:13:16.394Z,3.97
2022-08-26T04:14:27.975Z,3.77
2022-08-26T04:15:39.591Z,4.60
2022-08-26T04:16:51.612Z,4.30
2022-08-26T04:18:03.277Z,5.70
2022-08-26T04:19:15.446Z,5.07
2022-08-26T04:20:27.181Z,4.20
2022-08-26T04:21:41.281Z,4.60
2022-08-26T04:22:52.934Z,3.77
2022-08-26T04:24:06.388Z,3.37
2022-08-26T04:25:19.103Z,4.07
2022-08-26T04:26:39.325Z,3.97
2022-08-26T04:27:54.022Z,4.20
2022-08-26T04:29:08.059Z,3.93
2022-08-26T04:30:20.150Z,3.17
2022-08-26T04:31:34.038Z,4.63
2022-08-26T04:32:45.725Z,3.90
2022-08-26T04:33:57.230Z,3.63
2022-08-26T04:35:08.791Z,4.43
2022-08-26T04:36:20.596Z,4.27
2022-08-26T04:37:32.518Z,4.77
2022-08-26T04:38:45.852Z,3.67
2022-08-26T04:39:57.348Z,3.63
2022-08-26T04:41:15.649Z,3.70
2022-08-26T04:42:29.999Z,3.30
2022-08-26T04:43:42.037Z,4.13
2022-08-26T04:44:53.521Z,5.43
2022-08-26T04:46:05.533Z,3.20
2022-08-26T04:47:17.125Z,3.80
2022-08-26T04:48:31.169Z,4.07
2022-08-26T04:49:42.653Z,3.40
2022-08-26T04:50:54.188Z,4.17
2022-08-26T04:52:06.032Z,3.43
2022-08-26T04:53:17.651Z,4.00
2022-08-26T04:54:29.148Z,4.37
2022-08-26T04:55:42.878Z,4.03
2022-08-26T04:56:56.650Z,4.53
2022-08-26T04:58:10.421Z,3.57
2022-08-26T04:59:22.111Z,3.57
2022-08-26T05:00:33.585Z,3.00
2022-08-26T05:01:48.641Z,3.60
2022-08-26T05:03:00.914Z,3.83
2022-08-26T05:04:12.873Z,5.17
2022-08-26T05:05:27.978Z,4.77
2022-08-26T05:06:39.526Z,3.73
2022-08-26T05:07:51.021Z,4.43
2022-08-26T05:09:02.493Z,4.50
2022-08-26T05:10:13.979Z,4.03
2022-08-26T05:11:26.397Z,4.40
2022-08-26T05:12:38.271Z,5.43
2022-08-26T05:13:50.400Z,4.07
2022-08-26T05:15:01.871Z,4.40
2022-08-26T05:16:15.542Z,3.83
2022-08-26T05:17:28.865Z,3.70
2022-08-26T05:18:41.225Z,4.10
2022-08-26T05:19:55.528Z,4.57
2022-08-26T05:21:07.466Z,4.53
2022-08-26T05:22:18.965Z,5.03
2022-08-26T05:23:33.561Z,4.00
2022-08-26T05:24:46.491Z,4.67
2022-08-26T05:25:59.318Z,4.13
2022-08-26T05:27:13.097Z,4.07
2022-08-26T05:28:24.696Z,3.57
2022-08-26T05:29:36.413Z,4.47
2022-08-26T05:30:49.140Z,3.87
2022-08-26T05:32:01.681Z,3.20
2022-08-26T05:33:14.030Z,3.97
2022-08-26T05:34:30.038Z,4.40
2022-08-26T05:35:42.775Z,4.93
2022-08-26T05:36:54.334Z,4.27
2022-08-26T05:38:10.446Z,3.93
2022-08-26T05:39:24.682Z,3.50
2022-08-26T05:40:40.948Z,4.40
2022-08-26T05:41:52.465Z,3.83
2022-08-26T05:43:10.409Z,4.10
2022-08-26T05:44:22.450Z,5.33
2022-08-26T05:45:33.978Z,3.60
2022-08-26T05:46:46.083Z,3.80
2022-08-26T05:47:57.735Z,4.17
2022-08-26T05:49:12.587Z,3.70
2022-08-26T05:50:25.660Z,4.27
2022-08-26T05:51:37.144Z,4.40
2022-08-26T05:52:51.927Z,2.97
2022-08-26T05:54:04.008Z,3.97
2022-08-26T05:55:15.830Z,2.93
2022-08-26T05:56:28.422Z,5.23
2022-08-26T05:57:42.765Z,3.20
2022-08-26T05:58:55.734Z,3.90
2022-08-26T06:00:07.755Z,3.50
2022-08-26T06:01:20.473Z,4.27
2022-08-26T06:02:33.040Z,4.13
2022-08-26T06:03:46.247Z,3.27
2022-08-26T06:05:00.583Z,3.00
2022-08-26T06:06:14.395Z,4.63
2022-08-26T06:07:45.854Z,3.80
2022-08-26T06:08:59.409Z,3.40
2022-08-26T06:10:32.465Z,4.03
2022-08-26T06:11:44.494Z,4.37
2022-08-26T06:12:56.530Z,3.57
2022-08-26T06:14:08.396Z,3.87
2022-08-26T06:15:20.117Z,3.37
2022-08-26T06:16:34.998Z,4.13
2022-08-26T06:17:47.046Z,4.87
2022-08-26T06:19:01.469Z,3.57
2022-08-26T06:20:14.272Z,4.17
2022-08-26T06:21:27.227Z,4.33
2022-08-26T06:22:57.459Z,4.83
2022-08-26T06:24:30.986Z,4.37
2022-08-26T06:25:43.418Z,3.30
2022-08-26T06:26:56.474Z,3.30
2022-08-26T06:28:08.790Z,3.07
2022-08-26T06:29:24.671Z,3.77
2022-08-26T06:30:40.680Z,2.93
2022-08-26T06:31:53.162Z,3.13
2022-08-26T06:33:04.835Z,4.27
2022-08-26T06:34:17.563Z,3.63
2022-08-26T06:35:29.111Z,3.23
2022-08-26T06:36:41.938Z,3.47
2022-08-26T06:37:56.102Z,29.40
2022-08-26T06:39:10.061Z,118.03
2022-08-26T06:40:23.458Z,59.53
2022-08-26T06:41:34.983Z,28.57
2022-08-26T06:42:48.127Z,10.47
2022-08-26T06:44:00.544Z,8.27
2022-08-26T06:45:12.092Z,19.50
2022-08-26T06:46:23.890Z,22.93
2022-08-26T06:47:38.687Z,11.20
2022-08-26T06:48:50.342Z,5.77
2022-08-26T06:50:02.403Z,15.50
2022-08-26T06:51:18.974Z,12.63
2022-08-26T06:52:33.764Z,7.83
2022-08-26T06:53:47.094Z,6.17
2022-08-26T06:54:59.867Z,6.33
2022-08-26T06:56:11.927Z,5.40
2022-08-26T06:57:23.741Z,4.70
2022-08-26T06:58:35.966Z,4.20
2022-08-26T06:59:48.197Z,4.00
2022-08-26T07:01:09.503Z,2.83
2022-08-26T07:02:23.669Z,3.20
2022-08-26T07:03:39.978Z,3.13
2022-08-26T07:04:51.489Z,3.37
2022-08-26T07:06:06.232Z,4.57
2022-08-26T07:07:18.868Z,3.40
2022-08-26T07:08:34.016Z,3.50
2022-08-26T07:09:46.880Z,3.03
2022-08-26T07:11:04.356Z,4.87
2022-08-26T07:12:16.814Z,2.90
2022-08-26T07:13:30.611Z,6.23
2022-08-26T07:14:43.747Z,4.10
2022-08-26T07:16:03.191Z,3.73
2022-08-26T07:17:16.164Z,4.00
2022-08-26T07:18:27.970Z,4.23
2022-08-26T07:19:39.459Z,3.93
2022-08-26T07:20:51.318Z,4.17
2022-08-26T07:22:04.610Z,4.20
2022-08-26T07:23:16.275Z,4.57
2022-08-26T07:24:29.083Z,4.13
2022-08-26T07:25:41.485Z,4.00
2022-08-26T07:26:53.347Z,3.90
2022-08-26T07:28:04.923Z,3.73
2022-08-26T07:29:16.995Z,3.93
2022-08-26T07:30:28.677Z,3.73
2022-08-26T07:31:42.709Z,4.13
2022-08-26T07:32:56.219Z,4.00
2022-08-26T07:34:09.380Z,3.50
2022-08-26T07:59:43.006Z,4.83
2022-08-26T08:00:54.533Z,3.57
2022-08-26T08:02:06.137Z,3.43
2022-08-26T08:03:18.402Z,3.90
2022-08-26T08:04:29.964Z,3.60
2022-08-26T08:05:41.622Z,3.63
2022-08-26T08:06:56.195Z,4.53
2022-08-26T08:08:26.825Z,3.80
2022-08-26T08:09:40.673Z,4.40
2022-08-26T08:10:52.368Z,3.80
2022-08-26T08:12:05.213Z,3.60
2022-08-26T08:13:18.262Z,3.60
2022-08-26T08:14:31.020Z,3.53
2022-08-26T08:15:42.800Z,3.10
2022-08-26T08:16:54.724Z,2.87
2022-08-26T08:18:07.076Z,3.87
2022-08-26T08:19:36.649Z,4.07
2022-08-26T08:20:59.083Z,3.70
2022-08-26T08:22:19.901Z,3.50
2022-08-26T08:23:33.301Z,3.43
2022-08-26T08:24:44.902Z,4.03
2022-08-26T08:26:02.676Z,3.50
2022-08-26T08:27:14.225Z,3.40
2022-08-26T08:28:25.719Z,3.80
2022-08-26T08:29:37.589Z,3.90
2022-08-26T08:30:49.352Z,3.90
2022-08-26T08:32:01.022Z,3.67
2022-08-26T08:33:13.503Z,2.90
2022-08-26T08:34:26.099Z,3.13
2022-08-26T08:35:39.618Z,3.53
2022-08-26T08:36:53.272Z,3.30
2022-08-26T08:38:05.266Z,2.80
2022-08-26T08:39:18.621Z,2.97
2022-08-26T08:40:31.363Z,5.47
2022-08-26T08:41:53.450Z,3.53
2022-08-26T08:43:07.152Z,3.83
2022-08-26T08:44:21.036Z,3.73
2022-08-26T08:45:44.709Z,3.27
2022-08-26T08:47:00.998Z,3.93
2022-08-26T08:48:12.497Z,3.33
2022-08-26T08:49:25.960Z,3.77
2022-08-26T08:50:42.753Z,4.53
2022-08-26T08:52:00.520Z,3.40
2022-08-26T08:53:14.317Z,3.30
2022-08-26T08:54:30.184Z,5.10
2022-08-26T08:55:45.553Z,3.87
2022-08-26T08:56:59.769Z,3.77
2022-08-26T08:58:16.085Z,3.17
2022-08-26T08:59:35.627Z,4.60
2022-08-26T09:00:54.367Z,4.67
2022-08-26T09:02:11.323Z,4.70
2022-08-26T09:03:23.370Z,4.83
2022-08-26T09:04:52.279Z,5.90
2022-08-26T09:06:05.297Z,3.70
2022-08-26T09:07:23.028Z,4.53
2022-08-26T09:08:37.004Z,4.63
2022-08-26T09:09:54.331Z,3.27
2022-08-26T09:11:05.947Z,3.63
2022-08-26T09:12:21.143Z,4.27
2022-08-26T09:13:44.696Z,3.83
2022-08-26T09:15:11.407Z,4.23
2022-08-26T09:16:32.950Z,4.40
2022-08-26T09:17:50.971Z,5.33
2022-08-26T09:19:03.210Z,4.60
2022-08-26T09:20:32.219Z,4.10
2022-08-26T09:21:43.965Z,3.77
2022-08-26T09:22:57.463Z,4.80
2022-08-26T09:24:11.226Z,5.10
2022-08-26T09:25:25.505Z,4.23
2022-08-26T09:26:40.186Z,4.27
2022-08-26T09:27:53.027Z,5.87
2022-08-26T09:29:08.781Z,4.20
2022-08-26T09:30:30.952Z,4.00
2022-08-26T09:31:42.634Z,4.07
2022-08-26T09:32:59.054Z,5.37
2022-08-26T09:34:10.533Z,4.50
2022-08-26T09:35:37.367Z,5.40
2022-08-26T09:36:51.877Z,4.57
2022-08-26T09:38:20.033Z,4.70
2022-08-26T09:39:37.860Z,5.13
2022-08-26T09:41:00.505Z,4.63
2022-08-26T09:42:21.515Z,3.50
2022-08-26T09:43:33.021Z,4.37
2022-08-26T09:44:55.765Z,3.93
2022-08-26T09:46:15.964Z,5.37
2022-08-26T09:47:32.183Z,4.73
2022-08-26T09:48:43.904Z,4.97
2022-08-26T09:50:18.394Z,4.33
2022-08-26T09:51:33.072Z,3.90
2022-08-26T09:52:44.669Z,3.70
2022-08-26T09:53:57.827Z,3.67
2022-08-26T09:55:09.341Z,4.03
2022-08-26T09:56:27.685Z,4.30
2022-08-26T09:58:08.811Z,4.27
2022-08-26T09:59:32.489Z,2.83
2022-08-26T10:00:54.779Z,3.47
2022-08-26T10:02:24.987Z,3.47
2022-08-26T10:03:38.542Z,4.40
2022-08-26T10:04:55.430Z,3.30
2022-08-26T10:06:21.152Z,3.50
2022-08-26T10:07:44.875Z,4.20
2022-08-26T10:09:08.756Z,3.47
2022-08-26T10:10:21.489Z,3.73
2022-08-26T10:11:41.930Z,3.60
2022-08-26T10:13:01.292Z,3.70
2022-08-26T10:14:18.768Z,3.20
2022-08-26T10:15:36.542Z,3.00
2022-08-26T10:16:55.299Z,3.83
2022-08-26T10:18:28.768Z,3.93
2022-08-26T10:20:03.250Z,3.87
2022-08-26T10:21:21.319Z,4.90
2022-08-26T10:22:37.077Z,3.47
2022-08-26T10:23:50.944Z,2.97
2022-08-26T10:25:05.549Z,3.40
2022-08-26T10:26:26.774Z,3.97
2022-08-26T10:28:01.249Z,3.57
2022-08-26T10:29:12.725Z,3.63
2022-08-26T10:30:26.788Z,3.00
2022-08-26T10:31:41.044Z,3.80
2022-08-26T10:32:55.905Z,3.57
2022-08-26T10:34:08.579Z,3.10
2022-08-26T10:35:20.357Z,3.00
2022-08-26T10:37:13.504Z,3.27
2022-08-26T10:38:29.385Z,3.73
2022-08-26T10:39:57.023Z,4.20
2022-08-26T10:41:16.995Z,3.10
2022-08-26T10:42:37.554Z,4.00
2022-08-26T10:43:51.792Z,4.43
2022-08-26T10:45:15.103Z,4.53
2022-08-26T10:46:28.959Z,3.00
2022-08-26T10:47:47.675Z,4.27
2022-08-26T10:49:06.518Z,3.87
2022-08-26T10:50:19.412Z,3.10
2022-08-26T10:51:36.801Z,3.23
2022-08-26T10:52:51.104Z,3.37
2022-08-26T10:54:07.501Z,3.10
2022-08-26T10:55:27.982Z,4.10
2022-08-26T10:56:41.294Z,3.87
2022-08-26T10:58:05.010Z,3.63
2022-08-26T10:59:37.102Z,3.37
2022-08-26T11:01:10.827Z,3.10
2022-08-26T11:02:36.461Z,3.37
2022-08-26T11:03:48.188Z,4.67
2022-08-26T11:05:04.969Z,3.60
2022-08-26T11:06:19.933Z,3.67
2022-08-26T11:07:32.656Z,3.43
2022-08-26T11:08:48.578Z,3.43
2022-08-26T11:10:01.854Z,3.70
2022-08-26T11:11:34.862Z,3.73
2022-08-26T11:12:51.819Z,3.33
2022-08-26T11:14:06.643Z,4.27
2022-08-26T11:15:24.739Z,6.23
2022-08-26T11:16:36.909Z,5.47
2022-08-26T11:18:05.473Z,5.30
2022-08-26T11:19:59.584Z,5.63
2022-08-26T11:21:44.021Z,4.20
2022-08-26T11:23:16.336Z,3.57
2022-08-26T11:24:46.668Z,3.47
2022-08-26T11:25:59.794Z,3.07
2022-08-26T11:27:31.602Z,4.20
2022-08-26T11:28:50.214Z,3.60
2022-08-26T11:30:04.909Z,3.83
2022-08-26T11:31:19.859Z,4.07
2022-08-26T11:32:36.200Z,3.77
2022-08-26T11:33:51.058Z,3.47
2022-08-26T11:35:07.330Z,3.50
2022-08-26T11:36:34.931Z,3.53
2022-08-26T11:38:19.279Z,2.97
2022-08-26T11:39:36.662Z,3.33
2022-08-26T11:40:58.093Z,3.70
2022-08-26T11:42:35.808Z,4.57
2022-08-26T11:43:50.746Z,4.67
2022-08-26T11:45:16.132Z,4.13
2022-08-26T11:46:29.434Z,4.27
2022-08-26T11:47:41.049Z,4.80
2022-08-26T11:49:00.922Z,4.77
2022-08-26T11:50:23.636Z,4.10
2022-08-26T11:51:40.062Z,4.67
2022-08-26T11:53:02.519Z,3.40
2022-08-26T11:54:17.895Z,2.67
2022-08-26T11:55:47.372Z,3.90
2022-08-26T11:56:59.497Z,2.93
2022-08-26T11:58:15.376Z,4.30
2022-08-26T12:00:58.490Z,2.43
2022-08-26T12:02:14.788Z,3.63
2022-08-26T12:03:36.783Z,4.27
2022-08-26T12:04:49.555Z,3.80
2022-08-26T12:06:03.075Z,2.90
2022-08-26T12:07:15.818Z,3.47
2022-08-26T12:08:33.097Z,3.60
2022-08-26T12:10:13.343Z,2.93
2022-08-26T12:11:26.826Z,4.30
2022-08-26T12:12:39.496Z,3.57
2022-08-26T12:13:55.212Z,3.07
2022-08-26T12:15:10.911Z,3.40
2022-08-26T12:16:26.736Z,2.67
2022-08-26T12:17:40.881Z,3.60
2022-08-26T12:18:52.691Z,3.00
2022-08-26T12:20:06.504Z,3.10
2022-08-26T12:21:24.266Z,3.50
2022-08-26T12:22:36.191Z,3.10
2022-08-26T12:23:50.101Z,4.23
2022-08-26T12:25:05.372Z,4.77
2022-08-26T12:26:28.894Z,3.93
2022-08-26T12:27:42.442Z,3.73
2022-08-26T12:28:56.006Z,4.33
2022-08-26T12:30:12.481Z,3.42
2022-08-26T12:31:36.686Z,3.22
2022-08-26T12:32:57.943Z,3.22
2022-08-26T12:34:18.166Z,2.95
2022-08-26T12:35:31.241Z,3.30
2022-08-26T12:36:48.360Z,3.13
2022-08-26T12:38:00.073Z,4.07
2022-08-26T12:39:13.106Z,3.13
2022-08-26T12:40:30.795Z,4.88
2022-08-26T12:41:44.228Z,3.90
2022-08-26T12:42:56.836Z,3.13
2022-08-26T12:44:08.792Z,2.60
2022-08-26T12:45:27.889Z,2.95
2022-08-26T12:46:39.471Z,3.17
2022-08-26T12:47:54.463Z,4.03
2022-08-26T12:49:06.819Z,4.37
2022-08-26T12:50:20.201Z,3.70
2022-08-26T12:51:32.765Z,4.43
2022-08-26T12:53:04.619Z,3.90
2022-08-26T12:54:17.916Z,4.37
2022-08-26T12:55:32.760Z,4.67
2022-08-26T12:56:44.304Z,4.80
2022-08-26T12:58:12.611Z,6.17
2022-08-26T12:59:25.234Z,3.57
2022-08-26T13:00:38.135Z,4.83
2022-08-26T13:01:51.321Z,4.63
2022-08-26T13:03:03.343Z,4.70
2022-08-26T13:04:33.986Z,3.93
2022-08-26T13:05:45.776Z,4.10
2022-08-26T13:07:16.113Z,4.23
2022-08-26T13:08:29.377Z,4.77
2022-08-26T13:09:41.649Z,3.63
2022-08-26T13:11:03.572Z,4.10
2022-08-26T13:12:25.743Z,4.67
2022-08-26T13:13:37.576Z,3.47
2022-08-26T13:14:50.909Z,3.97
2022-08-26T13:16:03.241Z,3.80
2022-08-26T13:17:14.810Z,3.97
2022-08-26T13:18:26.391Z,3.20
2022-08-26T13:19:37.875Z,3.43
2022-08-26T13:20:49.480Z,4.47
2022-08-26T13:22:01.631Z,4.20
2022-08-26T13:23:14.385Z,3.70
2022-08-26T13:24:32.705Z,4.23
2022-08-26T13:25:45.224Z,3.80
2022-08-26T13:26:59.535Z,3.67
2022-08-26T13:28:11.320Z,3.03
2022-08-26T13:29:23.089Z,3.63
2022-08-26T13:30:35.361Z,3.43
2022-08-26T13:31:47.064Z,4.27
2022-08-26T13:33:00.345Z,3.50
2022-08-26T13:34:15.793Z,3.20
2022-08-26T13:35:27.541Z,3.10
2022-08-26T13:36:39.223Z,3.83
2022-08-26T13:37:50.762Z,4.30
2022-08-26T13:39:05.301Z,2.83
2022-08-26T13:40:16.913Z,3.70
2022-08-26T13:41:29.197Z,3.40
2022-08-26T13:42:49.583Z,3.83
2022-08-26T13:44:01.553Z,4.70
2022-08-26T13:45:13.297Z,9.27
2022-08-26T13:46:25.732Z,5.80
2022-08-26T13:47:37.690Z,4.93
2022-08-26T13:48:49.163Z,3.33
2022-08-26T13:50:00.695Z,3.70
2022-08-26T13:51:12.404Z,3.67
2022-08-26T13:52:30.412Z,3.27
2022-08-26T13:53:42.773Z,3.53
2022-08-26T13:54:54.358Z,3.60
2022-08-26T13:56:11.085Z,4.17
2022-08-26T13:57:24.745Z,4.27
2022-08-26T13:58:36.289Z,21.83
2022-08-26T13:59:47.782Z,21.03
2022-08-26T14:00:59.438Z,6.80
2022-08-26T14:02:11.058Z,5.20
2022-08-26T14:03:24.666Z,6.03
2022-08-26T14:04:36.235Z,4.40
2022-08-26T14:05:47.793Z,11.93
2022-08-26T14:06:59.397Z,5.53
2022-08-26T14:08:11.025Z,4.67
2022-08-26T14:09:22.601Z,4.33
2022-08-26T14:10:34.426Z,4.83
2022-08-26T14:11:50.611Z,3.50
2022-08-26T14:13:06.305Z,3.53
2022-08-26T14:14:19.237Z,4.80
2022-08-26T14:15:35.517Z,3.17
2022-08-26T14:16:59.125Z,4.33
2022-08-26T14:18:13.701Z,4.17
2022-08-26T14:19:30.014Z,3.93
2022-08-26T14:20:42.757Z,3.97
2022-08-26T14:21:54.285Z,3.70
2022-08-26T14:23:14.280Z,4.00
2022-08-26T14:24:26.239Z,4.00
2022-08-26T14:25:37.863Z,3.87
2022-08-26T14:26:52.285Z,3.17
2022-08-26T14:28:03.979Z,3.77
2022-08-26T14:29:16.858Z,4.20
2022-08-26T14:30:29.213Z,3.87
2022-08-26T14:31:40.739Z,3.53
2022-08-26T14:32:53.671Z,3.57
2022-08-26T14:34:06.561Z,4.27
2022-08-26T14:35:20.257Z,4.67
2022-08-26T14:36:32.525Z,2.90
2022-08-26T14:37:44.610Z,3.60
2022-08-26T14:38:57.305Z,3.50
2022-08-26T14:40:09.211Z,3.60
2022-08-26T14:41:21.289Z,3.13
2022-08-26T14:42:34.411Z,3.47
2022-08-26T14:43:48.906Z,4.00
2022-08-26T14:45:01.923Z,3.33
2022-08-26T14:46:14.750Z,3.73
2022-08-26T14:47:26.483Z,3.83
2022-08-26T14:48:37.990Z,3.00
2022-08-26T14:49:49.912Z,3.57
2022-08-26T14:51:01.411Z,4.03
2022-08-26T14:52:12.901Z,3.97
2022-08-26T14:53:42.766Z,4.03
2022-08-26T14:54:55.270Z,4.40
2022-08-26T14:56:07.033Z,4.97
2022-08-26T14:57:18.617Z,4.13
2022-08-26T14:58:34.854Z,3.53
2022-08-26T14:59:50.037Z,3.90
2022-08-26T15:01:04.226Z,4.30
2022-08-26T15:02:32.461Z,4.33
2022-08-26T15:03:45.233Z,3.37
2022-08-26T15:04:56.731Z,3.57
2022-08-26T15:06:08.334Z,3.30
2022-08-26T15:07:19.835Z,3.07
2022-08-26T15:08:36.481Z,4.10
2022-08-26T15:09:47.963Z,3.10
2022-08-26T15:10:59.706Z,4.27
2022-08-26T15:12:11.212Z,3.80
2022-08-26T15:13:22.731Z,3.90
2022-08-26T15:14:34.491Z,3.30
2022-08-26T15:15:46.981Z,4.30
2022-08-26T15:16:58.537Z,3.60
2022-08-26T15:18:10.530Z,3.47
2022-08-26T15:19:23.715Z,4.20
2022-08-26T15:20:37.597Z,3.60
2022-08-26T15:21:49.459Z,3.80
2022-08-26T15:23:06.084Z,3.27
2022-08-26T15:24:20.362Z,3.87
2022-08-26T15:25:32.179Z,3.80
2022-08-26T15:26:43.765Z,3.60
2022-08-26T15:27:55.341Z,3.87
2022-08-26T15:29:07.116Z,3.37
2022-08-26T15:30:18.807Z,3.97
2022-08-26T15:31:31.635Z,4.00
2022-08-26T15:32:43.347Z,2.87
2022-08-26T15:33:56.417Z,3.50
2022-08-26T15:35:09.252Z,3.67
2022-08-26T15:36:21.005Z,3.17
2022-08-26T15:37:32.885Z,3.87
2022-08-26T15:38:44.686Z,3.93
2022-08-26T15:39:56.991Z,3.47
2022-08-26T15:41:09.080Z,3.67
2022-08-26T15:42:20.987Z,3.20
2022-08-26T15:43:32.830Z,3.60
2022-08-26T15:44:45.404Z,3.23
2022-08-26T15:45:57.829Z,4.00
2022-08-26T15:47:09.336Z,3.45
2022-08-26T15:48:21.958Z,4.20
2022-08-26T15:49:33.452Z,4.30
2022-08-26T15:50:52.556Z,3.35
2022-08-26T15:52:05.463Z,3.75
2022-08-26T15:53:17.420Z,3.65
2022-08-26T15:54:28.926Z,3.33
2022-08-26T15:55:40.380Z,3.70
2022-08-26T15:56:53.122Z,3.63
2022-08-26T15:58:05.179Z,3.83
2022-08-26T15:59:16.863Z,3.40
2022-08-26T16:00:28.375Z,3.97
2022-08-26T16:01:40.127Z,3.53
2022-08-26T16:02:51.823Z,4.28
2022-08-26T16:04:03.843Z,3.50
2022-08-26T16:05:15.374Z,3.35
2022-08-26T16:06:31.774Z,3.47
2022-08-26T16:07:43.265Z,4.07
2022-08-26T16:08:56.122Z,3.60
2022-08-26T16:10:07.939Z,3.83
2022-08-26T16:11:19.947Z,3.73
2022-08-26T16:12:31.419Z,3.33
2022-08-26T16:13:42.905Z,3.77
2022-08-26T16:14:54.772Z,4.43
2022-08-26T16:16:06.885Z,3.83
2022-08-26T16:17:18.399Z,3.67
2022-08-26T16:18:30.161Z,4.70
2022-08-26T16:19:41.669Z,3.90
2022-08-26T16:21:06.549Z,3.77
2022-08-26T16:22:24.680Z,4.23
2022-08-26T16:23:45.245Z,3.70
2022-08-26T16:24:57.859Z,3.60
2022-08-26T16:26:10.665Z,4.50
2022-08-26T16:27:23.067Z,3.83
2022-08-26T16:28:34.687Z,4.20
2022-08-26T16:29:46.220Z,3.47
2022-08-26T16:30:57.876Z,4.23
2022-08-26T16:32:09.403Z,4.30
2022-08-26T16:33:29.165Z,3.60
2022-08-26T16:34:56.263Z,3.77
2022-08-26T16:36:08.849Z,3.07
2022-08-26T16:37:20.356Z,4.03
2022-08-26T16:38:31.847Z,4.30
2022-08-26T16:39:44.897Z,4.43
2022-08-26T16:40:56.891Z,3.63
2022-08-26T16:42:08.483Z,3.27
2022-08-26T16:43:19.956Z,3.80
2022-08-26T16:44:44.264Z,3.90
2022-08-26T16:45:56.186Z,4.17
2022-08-26T16:47:07.728Z,3.77
2022-08-26T16:48:19.717Z,3.80
2022-08-26T16:49:31.200Z,4.67
2022-08-26T16:50:42.710Z,4.83
2022-08-26T16:51:54.211Z,4.30
2022-08-26T16:53:05.787Z,3.57
2022-08-26T16:54:17.286Z,3.70
2022-08-26T16:55:28.847Z,3.83
2022-08-26T16:56:40.334Z,3.93
2022-08-26T16:57:52.130Z,4.07
2022-08-26T16:59:05.112Z,3.70
2022-08-26T17:00:27.642Z,4.00
2022-08-26T17:01:41.418Z,3.60